Archival Weather

Bridgeport/Sikorsky

Bridgeport, Connecticut (KBDR)

Report from: Friday, February 23, 2024 9:52 PM EST
Current time: Wednesday, May 29, 2024 8:17 PM EDT

Current weather – Weather history – Daily summaries
Weather forecast

Temperature5.6°C (42.1°F)
Wind chill4.6°C (40.2°F)
Dew point3.3°C (37.9°F)
Winds 3 kts (1.5 m/s, 3.5 mph) West (280°)
Visibility10 mi. (16.1 km)
Clouds Sky clear
Altimeter29.46 in.Hg (998 mB)
Relative humidity85 %
Density altitude-481 ft. (-147 m)
Sea-level pressure99.8 kPa (998 mB, 29.46 in.Hg)
Remarks Fully automated report
System requires maintenance
Automated weather observing station with precipitation discriminator
Pressure falling more slowly
Flight conditions Visual Meteorological Conditions
Raw dataKBDR 240252Z AUTO 28003KT 10SM CLR 06/03 A2946 RMK AO2 SLP975 T00560033 56004 $
An error has occurred. This application may no longer respond until reloaded. Reload 🗙